Trouver une station-service

Coordonnées stations
STATION Téléphone (+228) Addresse  Localité Quartier Région Type de Station Horaires d'ouverture GPS
Longtitude
GPS
Latitude
Coordonnés GPS
1 TOTAL ADAKPAME 22714872 En face du Marché, Adakpamé Lomé Adakpamé Lomé Proximité Lun. - Dim. 06:00-22:00 6.1701450 1.2910558 http://maps.google.com/maps?q=loc:6.1701450,1.2910558
2 TOTAL ADETA 24497041 Route Principale, Poste Adéta Adéta Wetsi Plateaux Rurale Lun. - Dim. 06:00-22:00 7.1284197 0.7315173 http://maps.google.com/maps?q=loc:7.1284197,0.7315173
3 TOTAL ADETIKOPE 22236800 Boulevard Eyadema, Adétikopé Lomé Blâmekope Maritime Route Principale Lun. - Dim. 06:00-22:00 6.32382 1.2190497 http://maps.google.com/maps?q=loc:6.32382,1.2190497
4 TOTAL ADIDOGOME 22505156 Boulevard du 30 Aout, Adidogomé Lomé Adidogomé Lomé Proximité Lun. - Dim. 06:00-22:00 6.1845622 1.1673869 http://maps.google.com/maps?q=loc:6.1845622,1.1673869
5 TOTAL ADJOLOLO 22221139 Ave Franz Joseph Strauss, Nyekonakpoe Lomé Adjololo Maritime Proximité Lun. - Dim. 06:00-22:00 6.1273712 1.2068791 http://maps.google.com/maps?q=loc:6.1273712,1.2068791
6 TOTAL AGBALEPEDO 22259264 Gare routière Agbalépédogan Lomé Agbalépédogan Lomé Proximité Lun. - Dim. 06:00-22:00 6.1984107 1.2007136 http://maps.google.com/maps?q=loc:6.1984107,1.2007136
7 TOTAL AGBONOU 24400206 Route Nationale N1, CEB, Agbonou Atakpamé Agbonou Plateaux Route Principale Lun. - Dim. 06:00-22:00 7.5199528 1.1476658 http://maps.google.com/maps?q=loc:7.5199528,1.1476658
8 TOTAL AGOE 22501948 Boulevard Eyadema, Agoè Lomé Agoe Maritime Route Principale Lun. - Dim. 06:00-22:00 6.2158627 1.2090390 http://maps.google.com/maps?q=loc:6.2158627,1.2090390
9 TOTAL AGOE ASSIYEYE 22251306 Agoè Assiyéyé Lomé Agoè Assiyéyé Maritime Proximité Lun. - Dim. 06:00-22:00 6.2343966 1.1952242 http://maps.google.com/maps?q=loc:6.2343966,1.1952242
10 TOTAL AGOE ZONGO 22236800 Nationale N1 sens retour non loin du golf club Lomé Agoè zongo Maritime Route Principale Lun. - Dim. 06:00-22:00 6.2500472 1.2087999 http://maps.google.com/maps?q=loc:6.2500472,1.2087999
11 TOTAL AKOSSOMBO 22211287 Avenue du R.P.T., Akossombo Lomé Klikamé Lomé Proximité Lun. - Dim. 06:00-22:00 6.1658297 1.2024680 http://maps.google.com/maps?q=loc:6.1658297,1.2024680
12 TOTAL AMOUTIEVE 22213862 Ave Maman N'Danida, Amoutiévé Lomé Amoutiévé Lomé Proximité Lun. - Dim. 06:00-22:00 6.1429188 1.2299542 http://maps.google.com/maps?q=loc:6.1429188,1.2299542
13 TOTAL ANEHO ADJIDO 23310242 Yésuvito Aného Adjido Maritime Proximité Lun. - Dim. 06:00-22:00 6.2355194 1.6070451 http://maps.google.com/maps?q=loc:6.2355194,1.6070451
14 TOTAL ANIE 1 24493105 Route Nationale N1, Marché Anié Anié Anié Plateaux Route Principale Lun. - Dim. 06:00-22:00 7.7639076 1.1934882 http://maps.google.com/maps?q=loc:7.7639076,1.1934882
15 TOTAL ANIE 2 24426595 Route Nationale N1, Ancien Marché Anié Anié Assivimé Plateaux Route Principale Lun. - Dim. 06:00-22:00 7.7564925 1.1932117 http://maps.google.com/maps?q=loc:7.7564925,1.1932117
16 TOTAL ATAKPAME PTT 24400306 Poste Atakpamé Atakpamé Houoo Plateaux Proximité Lun. - Dim. 06:00-22:00 7.5325837 1.1243829 http://maps.google.com/maps?q=loc:7.5325837,1.1243829
17 TOTAL ATLANTIQUE 22236800 Nationale N2 non loin de l'Eglise catholique de Kpogan Lomé Kpogan agbètico Maritime Route Principale Lun. - Dim. 06:00-22:00 6.1802417 1.38586944 http://maps.google.com/maps?q=loc:6.1802417,1.38586944
18 TOTAL AVENOU 22510897 Boulevard du 30 Aout, Avénou Lomé Avenou Maritime Proximité Lun. - Dim. 06:00-22:00 6.1732544 1.1868586 http://maps.google.com/maps?q=loc:6.1732544,1.1868586
19 TOTAL B.T.C.I 22220845 Boulevard du 13 Janvier, Doulassamé Lomé Doulassamé Lomé Lieu Travail Lun. - Dim. 06:00-22:00 6.1369572 1.2263241 http://maps.google.com/maps?q=loc:6.1369572,1.2263241
20 TOTAL BADOU 24490062 Route principale, Marché Badou Badou   Plateaux Rurale Lun. - Dim. 06:00-22:00 7.5857027 0.6091433 http://maps.google.com/maps?q=loc:7.5857027,0.6091433
21 TOTAL BAFILO 26691001 Route nationale N1 Bafilo Bafilo Kamboa Kara Route Principale Lun. - Dim. 06:00-22:00 9.3829190 1.2348188 http://maps.google.com/maps?q=loc:9.3829190,1.2348188
22 TOTAL BAGUIDA 22275208 Nationale N°2, Baguida Lomé Baguida Maritime Route Principale Lun. - Dim. 06:00-22:00 6.1635156 1.3247767 http://maps.google.com/maps?q=loc:6.1635156,1.3247767
23 TOTAL BANGELI 26639018 N19, Marché Bandjeli Badjeli Bikroukpambe Kara Rurale Lun. - Dim. 06:00-22:00 9.4218408 0.6243578 http://maps.google.com/maps?q=loc:9.4218408,0.6243578
24 TOTAL BASSAR 26630039 Route principale, Poste Bassar Bassar Wadande Kara Rurale Lun. - Dim. 06:00-22:00 9.2613552 0.7796966 http://maps.google.com/maps?q=loc:9.2613552,0.7796966
25 TOTAL BE LAGUNE 22217882 Ave Augustino de Souza, Bè Hédjé Lomé BE Lomé Proximité Lun. - Dim. 06:00-22:00 6.1478666 1.2442118 http://maps.google.com/maps?q=loc:6.1478666,1.2442118
26 TOTAL BE MARCHE 22227353 Boulevard Félix Houphouët-Boigny, Bè Kpéhénou Lomé BE Lomé Proximité Lun. - Dim. 06:00-22:00 6.1407092 1.2398899 http://maps.google.com/maps?q=loc:6.1407092,1.2398899
27 TOTAL BLITTA 25595007 Route Nationale N1 Blitta Blitta Blitta carrefour Plateaux Route Principale Lun. - Dim. 06:00-22:00 8.3435687 1.0093498 http://maps.google.com/maps?q=loc:8.3435687,1.0093498
28 TOTAL BOULEVARD 1 22218409 Boulevard du 13 Janvier, Imm. Fiata, Souza Nétimé Lomé Maritime Proximité Lun. - Dim. 06:00-22:00 6.1339191 1.2345460 http://maps.google.com/maps?q=loc:6.1339191,1.2345460
29 TOTAL BOULEVARD 2 22213916 Boulevard du 13 Janvier, Clinique Alodo, Octaviano Nétimé Lomé Nyékonakpoè Lomé Proximité Lun. - Dim. 06:00-22:00 6.1310421 1.2122509 http://maps.google.com/maps?q=loc:6.1310421,1.2122509
30 TOTAL CACAVELLI 22254097 Nationale N1, Cacavelli Lomé Cacavelli Maritime Route Principale Lun. - Dim. 06:00-22:00 6.2019165 1.2080020 http://maps.google.com/maps?q=loc:6.2019165,1.2080020
31 TOTAL CHAMPS DE COURSE 22220841 Avenue de la Nouvelle Marche, Tokoin Gbadago Lomé Gbadago Lomé Proximité Lun. - Dim. 06:00-22:00 6.1432739 1.2170795 http://maps.google.com/maps?q=loc:6.1432739,1.2170795
32 TOTAL CINKASSE 1 27760117 Non loin du Collège Don Bosco, Cinkassé Cinkassé Nazezan Savanes Route Principale Lun. - Dim. 06:00-22:00 11.0967467 0.0222395 http://maps.google.com/maps?q=loc:11.0967467,0.0222395
33 TOTAL CINKASSE 2 90045432 Route Nationale N16, Frontière Burkina Faso, Cinkassé Cinkassé Frontière Savanes Route Principale Lun. - Dim. 06:00-22:00 11.1102194 0.02155 http://maps.google.com/maps?q=loc:11.1102194,0.02155
34 TOTAL DADZIE 22220465 45, Avenue Maman N'Danida, Doulassamé Lomé Amoutiévé Lomé Proximité Lun. - Dim. 06:00-22:00 6.1384403 1.2291469 http://maps.google.com/maps?q=loc:6.1384403,1.2291469
35 TOTAL DANYI 24475014 Route de Dzogbegan, Marché d'Apéyémé, Danyi Danyi Apéyémé Apéyémé Plateaux Rurale Lun. - Dim. 06:00-22:00 7.2026024 0.6935084 http://maps.google.com/maps?q=loc:7.2026024,0.6935084
36 TOTAL DAPAONG 1 27708239 En face du Marché Dapaong Dapaong Natieng Savanes Proximité Lun. - Dim. 06:00-22:00 10.8639223 0.2049918 http://maps.google.com/maps?q=loc:10.8639223,0.2049918
37 TOTAL DAPAONG 2 27708132 Route Nationale N1, Sortie Dapaong Dapaong Nassable Savanes Route Principale Lun. - Dim. 06:00-22:00 10.8812556 0.1927929 http://maps.google.com/maps?q=loc:10.8812556,0.1927929
38 TOTAL DZIDZOLE 22259043 Avenue Pya, Djidjolé Lomé Djidjolé Lomé Proximité Lun. - Dim. 06:00-22:00 6.1798571 1.1954641 http://maps.google.com/maps?q=loc:6.1798571,1.1954641
39 TOTAL DZIFA KPOTA 22236800 Bè Kpota Lomé Adakpamé Kpota Lomé Proximité Lun. - Dim. 00:00-24:00 6.09541 1.16143  
40 TOTAL ENTENTE 22220847 Rue de l'Entente, Souza Nétimé Lomé Sousa nintimé Maritime Lieu Travail Lun. - Dim. 06:00-22:00 6.1318781 1.2435776 http://maps.google.com/maps?q=loc:6.1318781,1.2435776
41 TOTAL FREAU JARDIN 22215247 Avenue de la Libération, Fréau Jardin Lomé Assivito Lomé Lieu Travail Lun. - Dim. 06:00-22:00 6.1322013 1.2236839 http://maps.google.com/maps?q=loc:6.1322013,1.2236839
42 TOTAL GUERIN KOUKA 26620015 N17, Marché Guerin Kouka Guérin - Kouka Messanda Kara Rurale Lun. - Dim. 06:00-22:00 9.6872741 0.6080879 http://maps.google.com/maps?q=loc:9.6872741,0.6080879
43 TOTAL HANOUKOPE 22220157 Avenue de la Nouvelle Marche, Hanoukopé Lomé Hanoukopé Maritime Lieu Travail Lun. - Dim. 06:00-22:00 6.1360553 1.2188741 http://maps.google.com/maps?q=loc:6.1360553,1.2188741
44 TOTAL HEDZRANAWOE 22236800 Non loin du maché de Hédzranawoé Lomé Hédranawoé Maritime Proximité Lun. - Dim. 06:00-22:00 6.1885444 1.242875 http://maps.google.com/maps?q=loc:6.1885444,1.242875
45 TOTAL HIHEATRO 24400309 Route d'Atakpamé, Douane, Hiheatro Hiheatro Hiehatro Plateaux Rurale Lun. - Dim. 06:00-22:00 7.5364640 1.1100880 http://maps.google.com/maps?q=loc:7.5364640,1.1100880
46 TOTAL JEANPAUL 2 A 22220849 118 SJO, Boulevard Jean Paul II, Noukafou Lomé Noukafou Maritime Proximité Lun. - Dim. 06:00-22:00 6.1534352 1.2328374 http://maps.google.com/maps?q=loc:6.1534352,1.2328374
47 TOTAL JEANPAUL 2 B 22214868 49 SJO, rue de la Trinité, Boulevard Jean Paul II, Forever Lomé Noukafou Maritime Proximité Lun. - Dim. 06:00-22:00 6.1545828 1.2325988 http://maps.google.com/maps?q=loc:6.1545828,1.2325988
48 TOTAL KABOU 26638018 N19, Marché Kabou Kabou Kadjampou Kara Rurale Lun. - Dim. 06:00-22:00 9.4539619 0.8124379 http://maps.google.com/maps?q=loc:9.4539619,0.8124379
49 TOTAL KAMBOLE 22236800 Route principale, Sortie Kamboli Kamboli Adja Centrale Rurale Lun. - Dim. 06:00-22:00 8.7476556 1.5931611 http://maps.google.com/maps?q=loc:8.7476556,1.5931611
50 TOTAL KANTE 26670137 Route Nationale N1 Kanté Kanté Mandota Kara Route Principale Lun. - Dim. 06:00-22:00 9.9547900 1.0561802 http://maps.google.com/maps?q=loc:9.9547900,1.0561802
51 TOTAL KARA 1 26606201 N16, Marché Kara Kara Ewaou Kara Proximité Lun. - Dim. 06:00-22:00 9.5461299 1.1903952 http://maps.google.com/maps?q=loc:9.5461299,1.1903952
52 TOTAL KARA 2 26606202 Route Nationale N1, Gare routière Kara Kara Kara Sud Kara Route Principale Lun. - Dim. 06:00-22:00 9.5334033 1.1995972 http://maps.google.com/maps?q=loc:9.5334033,1.1995972
53 TOTAL KARA 3 26606278 N16, Marché Kara Kara Ewaou Kara Proximité Lun. - Dim. 06:00-22:00 9.5457145 1.1904976 http://maps.google.com/maps?q=loc:9.5457145,1.1904976
54 TOTAL KARA TOMDE 26601519 Route Nationale N1, Tomde, Kara Kara Tomde Kara Route Principale Lun. - Dim. 06:00-22:00 9.5465759 1.1979524 http://maps.google.com/maps?q=loc:9.5465759,1.1979524
55 TOTAL KEGUE 22617756 Boulevard Jean Paul II, Kégué Lomé Kégué Maritime Proximité Lun. - Dim. 06:00-22:00 6.2044546 1.2422544 http://maps.google.com/maps?q=loc:6.2044546,1.2422544
56 TOTAL KELEGOUGAN 22236800 Sur la grand contournement Lomé Kélégougan Lomé Proximité Lun. - Dim. 06:00-22:00 6.123693 1.081266  
57 TOTAL KPALIME 1 24410186 Route Nationale N3 Kpalimé Kpalimé Kpéta Plateaux Route Principale Lun. - Dim. 06:00-22:00 6.8988326 0.6356250 http://maps.google.com/maps?q=loc:6.8988326,0.6356250
58 TOTAL KPALIME PTT 24410169 Route Nationale N3, Poste, Kpalimé Kpalimé Fiokomé Plateaux Proximité Lun. - Dim. 06:00-22:00 6.9074487 0.6324709 http://maps.google.com/maps?q=loc:6.9074487,0.6324709
59 TOTAL LA PAIX 22220846 Rue de l'Entente, Souza Nétimé Lomé Lomé Proximité Lun. - Dim. 06:00-22:00 6.1338857 1.2491721 http://maps.google.com/maps?q=loc:6.1338857,1.2491721
60 TOTAL LOME 2 22250956 Avenue de la Chance, GTA Lomé Lomé 2 Maritime Lieu Travail Lun. - Dim. 00:00-24:00 6.1918651 1.2089394 http://maps.google.com/maps?q=loc:6.1918651,1.2089394
61 TOTAL MANGO 27717065 Route Nationale N1 Mango Mango Douanes Savanes Route Principale Lun. - Dim. 06:00-22:00 10.3389922 0.4693725 http://maps.google.com/maps?q=loc:10.3389922,0.4693725
62 TOTAL MARINA 22215854 Boulevard du Mono, Béniglato Lomé Abattoir Lomé Lieu Travail Lun. - Dim. 06:00-22:00 6.1275784 1.2366356 http://maps.google.com/maps?q=loc:6.1275784,1.2366356
63 TOTAL MINAMADOU 1 22316179 Agoè Minamadou Lomé Agoè Minamadou Lomé Proximité Lun. - Dim. 00:00-24:00 6.22553 1.1936597 http://maps.google.com/maps?q=loc:6.22553,1.1936597
64 TOTAL MINAMADOU 2 22236800 Agoè Minamadou Lomé Agoè Minamadou Lomé Proximité Lun. - Dim. 06:00-22:00 6.224555 1.1921555 http://maps.google.com/maps?q=loc:6.224555,1.1921555
65 TOTAL NIAMTOUGOU 26650075 Route de l'Aéroport, Nationale N1, Niamtougou Niamtougou Daoura Kara Route Principale Lun. - Dim. 06:00-22:00 6.22553 1.1936597 http://maps.google.com/maps?q=loc:6.22553,1.1936597
66 TOTAL NOTSE 1 24429380 Route Nationale N1, Poste Notsé Notsè Ekli Plateaux Route Principale Lun. - Dim. 06:00-22:00 6.9495224 1.1735435 http://maps.google.com/maps?q=loc:6.9495224,1.1735435
67 TOTAL NOTSE 2 26616461 Route Nationale N1, Stade Notsé Notsè Bon ça va Plateaux Route Principale Lun. - Dim. 06:00-22:00 6.9642803 1.1717763 http://maps.google.com/maps?q=loc:6.9642803,1.1717763
68 TOTAL PALAIS DES CONGRES 22216525 Ave de Calais, Quartier Administratif Lomé Quartier Administratif Lomé Lieu Travail Lun. - Dim. 06:00-22:00 6.1328479 1.2169064 http://maps.google.com/maps?q=loc:6.1328479,1.2169064
69 TOTAL PATTE D'OIE 22514455 Boulevard du 30 Aout, Atikoumé Lomé Attikoume Maritime Proximité Lun. - Dim. 06:00-22:00 6.1667415 1.2020494 http://maps.google.com/maps?q=loc:6.1667415,1.2020494
70 TOTAL PYA 24452500 Route Nationale N1, Hôtel Kama'aka, Pya Pya Akeyi Kara Route Principale Lun. - Dim. 06:00-22:00 9.6604087 1.1358255 http://maps.google.com/maps?q=loc:9.6604087,1.1358255
71 TOTAL ROND POINT PORT 22710306 Route Nationale N2, Zone portuaire Lomé Port Lomé Lieu Travail Lun. - Dim. 06:00-22:00 6.1423442 1.2754972 http://maps.google.com/maps?q=loc:6.1423442,1.2754972
72 TOTAL ROUTE DE L'AEROPORT 22264564 Boulevard de la Paix, Tokoin Aéroport Lomé Tokoin Aéroport Lomé Lieu Travail Lun. - Dim. 06:00-22:00 6.1619278 1.2444367 http://maps.google.com/maps?q=loc:6.1619278,1.2444367
73 TOTAL SOGBOSSITO 22236800 Sur le boulevard du 30 Août Lomé Agoè Sogbossito Lomé Proximité Lun. - Dim. 06:00-22:00 6.2506917 1.1772166 http://maps.google.com/maps?q=loc:6.2506917,1.1772166
74 TOTAL SOKODE BARRIERE 25500215 Route Nationale N1, Commissariat, Sokodé Sokodé Barrière Centrale Route Principale Lun. - Dim. 06:00-22:00 8.9926872 1.1375313 http://maps.google.com/maps?q=loc:8.9926872,1.1375313
75 TOTAL SOKODE ENTREE 25501006 Route Nationale N1, Polyclinique, Sokodé Sokodé Akpakada Centrale Route Principale Lun. - Dim. 06:00-22:00 8.9820950 1.1399678 http://maps.google.com/maps?q=loc:8.9820950,1.1399678
76 TOTAL SOKODE KEDIA 25501124 Route Nationale N1, Kédia, Sokodé Sokodé Kpangalam Centrale Route Principale Lun. - Dim. 06:00-22:00 9.0084538 1.1357228 http://maps.google.com/maps?q=loc:9.0084538,1.1357228
77 TOTAL SOKODE MARCHE 25500147 Route Nationale N1, Marché, Sokodé Sokodé Zongo Centrale Route Principale Lun. - Dim. 06:00-22:00 8.9862916 1.1403283 http://maps.google.com/maps?q=loc:8.9862916,1.1403283
78 TOTAL TABLIGBO 1 23340363 N37, Près du Marché, Tabligbo Tabligbo Agbo comé Maritime Rurale Lun. - Dim. 06:00-22:00 6.5883778 1.4998828 http://maps.google.com/maps?q=loc:6.5883778,1.4998828
79 TOTAL TABLIGBO 2 23340329 Près de l'Eglise Catholique, Tabligbo Tabligbo Ga condji Maritime Rurale Lun. - Dim. 06:00-22:00 6.5880504 1.4992508 http://maps.google.com/maps?q=loc:6.5880504,1.4992508
80 TOTAL TCHAMBA 25520058 P 34, Gendarmerie Tchamba Tchamba Iyiwa Centrale Rurale Lun. - Dim. 06:00-22:00 9.0224915 1.4145104 http://maps.google.com/maps?q=loc:9.0224915,1.4145104
81 TOTAL TEMEDJA 22236800 Route principale, CarrefourTemedja Temedja Temedja Plateaux Route Principale Lun. - Dim. 06:00-22:00 7.5211417 1.06155 http://maps.google.com/maps?q=loc:7.5211417,1.06155
82 TOTAL TOKOIN CENTRE 22220842 Place de l’Union, Face Pharmacie de la Libération, Tokoin Gbonvié Lomé Tokoin gbonvié Maritime Proximité Lun. - Dim. 06:00-22:00 6.1548123 1.2173301 http://maps.google.com/maps?q=loc:6.1548123,1.2173301
83 TOTAL TOKOIN HOPITAL 22216779 Avenue de la Victoire, près du CHU, Tokoin Hôpital Lomé Tokoin hopital Maritime Proximité Lun. - Dim. 06:00-22:00 6.1415709 1.2080331 http://maps.google.com/maps?q=loc:6.1415709,1.2080331
84 TOTAL TOTSI 22258390 Avenue Pya, Totsi Lomé Totsi Maritime Proximité Lun. - Dim. 00:00-24:00 6.1954781 1.1891952 http://maps.google.com/maps?q=loc:6.1954781,1.1891952
85 TOTAL TSEVIE 1 23304056 En face de l'Eglise Protestante, Tsévié Tsévié Hetsetsiadi Maritime Route Principale Lun. - Dim. 06:00-22:00 6.4298338 1.2128490 http://maps.google.com/maps?q=loc:6.4298338,1.2128490
86 TOTAL TSEVIE 2 23304228 A côté de l'Eglise Catholique, Tsévié Tsévié Davièmondji Maritime Route Principale Lun. - Dim. 06:00-22:00 6.4282343 1.2131258 http://maps.google.com/maps?q=loc:6.4282343,1.2131258
87 TOTAL TSEVIE 3 23352650 Route Nationale 1, Près Hotel Melissa, Tsévié Tsévié Davièmondji Maritime Route Principale Lun. - Dim. 06:00-22:00 6.4118287 1.2094591 http://maps.google.com/maps?q=loc:6.4118287,1.2094591
88 TOTAL VOGAN 23331041 Face Yésuvito, Vogan Vogan Yéssuvito Maritime Rurale Lun. - Dim. 06:00-22:00 6.3339391 1.5309658 http://maps.google.com/maps?q=loc:6.3339391,1.5309658